createdAt,value
2019-02-06T00:00:26.609Z,4.37
2019-02-06T00:01:20.363Z,4.35
2019-02-06T00:02:19.366Z,4.42
2019-02-06T00:03:19.333Z,4.42
2019-02-06T00:04:19.347Z,4.49
2019-02-06T00:05:19.325Z,4.55
2019-02-06T00:06:19.312Z,4.53
2019-02-06T00:07:19.287Z,4.49
2019-02-06T00:08:19.291Z,4.53
2019-02-06T00:09:19.336Z,4.55
2019-02-06T00:10:19.298Z,4.56
2019-02-06T00:11:19.243Z,4.50
2019-02-06T00:12:19.247Z,4.45
2019-02-06T00:13:19.229Z,4.50
2019-02-06T00:14:19.209Z,4.55
2019-02-06T00:15:19.242Z,4.49
2019-02-06T00:16:19.240Z,4.45
2019-02-06T00:17:19.184Z,4.41
2019-02-06T00:18:19.198Z,4.49
2019-02-06T00:19:19.182Z,4.40
2019-02-06T00:20:19.207Z,4.30
2019-02-06T00:21:20.639Z,4.32
2019-02-06T00:22:19.121Z,4.28
2019-02-06T00:23:19.124Z,4.26
2019-02-06T00:24:19.152Z,4.30
2019-02-06T00:25:19.088Z,4.30
2019-02-06T00:26:19.150Z,4.37
2019-02-06T00:27:19.076Z,4.35
2019-02-06T00:28:19.058Z,4.40
2019-02-06T00:29:19.058Z,4.55
2019-02-06T00:30:19.046Z,4.52
2019-02-06T00:31:19.088Z,4.70
2019-02-06T00:32:19.022Z,4.70
2019-02-06T00:33:19.005Z,4.68
2019-02-06T00:34:18.997Z,4.71
2019-02-06T00:35:25.755Z,4.67
2019-02-06T00:36:19.972Z,4.63
2019-02-06T00:37:18.964Z,4.62
2019-02-06T00:38:18.967Z,4.52
2019-02-06T00:39:18.934Z,4.55
2019-02-06T00:40:18.932Z,4.50
2019-02-06T00:41:18.916Z,4.48
2019-02-06T00:42:18.899Z,4.40
2019-02-06T00:43:18.961Z,4.37
2019-02-06T00:44:18.903Z,4.40
2019-02-06T00:45:18.873Z,4.37
2019-02-06T00:46:18.864Z,4.42
2019-02-06T00:47:18.849Z,4.50
2019-02-06T00:48:18.973Z,4.70
2019-02-06T00:49:18.839Z,4.68
2019-02-06T00:50:18.821Z,4.78
2019-02-06T00:51:18.806Z,4.82
2019-02-06T00:52:18.917Z,4.75
2019-02-06T00:53:18.963Z,4.78
2019-02-06T00:54:18.773Z,4.78
2019-02-06T00:55:18.932Z,4.68
2019-02-06T00:56:18.745Z,4.73
2019-02-06T00:57:18.749Z,4.71
2019-02-06T00:58:18.729Z,4.68
2019-02-06T00:59:18.885Z,4.62
2019-02-06T01:00:18.704Z,4.80
2019-02-06T01:01:18.701Z,4.66
2019-02-06T01:02:18.716Z,4.70
2019-02-06T01:03:18.688Z,4.73
2019-02-06T01:04:18.657Z,4.67
2019-02-06T01:05:18.669Z,4.67
2019-02-06T01:06:18.766Z,4.58
2019-02-06T01:07:18.633Z,4.73
2019-02-06T01:08:18.622Z,4.66
2019-02-06T01:09:18.600Z,4.68
2019-02-06T01:10:18.586Z,4.70
2019-02-06T01:11:18.606Z,4.62
2019-02-06T01:12:18.577Z,4.66
2019-02-06T01:13:18.577Z,4.56
2019-02-06T01:14:18.576Z,4.53
2019-02-06T01:15:18.580Z,4.52
2019-02-06T01:16:18.516Z,4.56
2019-02-06T01:17:18.516Z,4.55
2019-02-06T01:18:18.506Z,4.55
2019-02-06T01:19:18.504Z,4.52
2019-02-06T01:20:18.484Z,4.66
2019-02-06T01:21:18.467Z,4.58
2019-02-06T01:22:18.464Z,4.53
2019-02-06T01:23:18.451Z,4.60
2019-02-06T01:24:18.436Z,4.59
2019-02-06T01:25:18.422Z,4.56
2019-02-06T01:26:18.539Z,4.52
2019-02-06T01:27:18.406Z,4.66
2019-02-06T01:28:18.390Z,4.67
2019-02-06T01:29:18.384Z,4.66
2019-02-06T01:30:18.376Z,4.68
2019-02-06T01:31:18.358Z,4.68
2019-02-06T01:32:18.349Z,4.67
2019-02-06T01:33:18.337Z,4.58
2019-02-06T01:34:18.330Z,4.68
2019-02-06T01:35:18.315Z,4.59
2019-02-06T01:36:18.307Z,4.52
2019-02-06T01:37:18.294Z,4.52
2019-02-06T01:38:18.275Z,4.55
2019-02-06T01:39:18.310Z,4.52
2019-02-06T01:40:18.274Z,4.62
2019-02-06T01:41:18.305Z,4.66
2019-02-06T01:42:18.317Z,4.67
2019-02-06T01:43:18.230Z,4.75
2019-02-06T01:44:18.213Z,4.73
2019-02-06T01:45:18.203Z,4.71
2019-02-06T01:46:18.228Z,4.80
2019-02-06T01:47:18.244Z,4.67
2019-02-06T01:48:18.221Z,4.75
2019-02-06T01:49:18.161Z,4.74
2019-02-06T01:50:18.140Z,4.67
2019-02-06T01:51:18.251Z,4.70
2019-02-06T01:52:18.117Z,4.68
2019-02-06T01:53:18.108Z,4.68
2019-02-06T01:54:18.106Z,4.73
2019-02-06T01:55:18.158Z,4.67
2019-02-06T01:56:18.085Z,4.67
2019-02-06T01:57:18.103Z,4.75
2019-02-06T01:58:18.057Z,4.74
2019-02-06T01:59:18.100Z,4.67
2019-02-06T02:00:18.070Z,4.67
2019-02-06T02:01:18.022Z,4.67
2019-02-06T02:02:18.013Z,4.67
2019-02-06T02:03:17.996Z,4.68
2019-02-06T02:04:17.997Z,4.67
2019-02-06T02:05:18.005Z,4.66
2019-02-06T02:06:17.961Z,4.66
2019-02-06T02:07:17.953Z,4.66
2019-02-06T02:08:17.940Z,4.60
2019-02-06T02:09:17.930Z,4.52
2019-02-06T02:10:17.922Z,4.53
2019-02-06T02:11:17.929Z,4.53
2019-02-06T02:12:17.895Z,4.56
2019-02-06T02:13:17.892Z,4.50
2019-02-06T02:14:17.879Z,4.55
2019-02-06T02:15:17.878Z,4.50
2019-02-06T02:16:17.874Z,4.52
2019-02-06T02:17:17.844Z,4.56
2019-02-06T02:18:17.836Z,4.55
2019-02-06T02:19:17.825Z,4.55
2019-02-06T02:20:17.812Z,4.63
2019-02-06T02:21:17.803Z,4.62
2019-02-06T02:22:17.789Z,4.59
2019-02-06T02:23:17.774Z,4.66
2019-02-06T02:24:17.765Z,4.67
2019-02-06T02:25:17.765Z,4.63
2019-02-06T02:26:17.743Z,4.67
2019-02-06T02:27:17.769Z,4.70
2019-02-06T02:28:17.728Z,4.63
2019-02-06T02:29:17.704Z,4.60
2019-02-06T02:30:17.696Z,4.56
2019-02-06T02:31:17.681Z,4.59
2019-02-06T02:32:17.677Z,4.56
2019-02-06T02:33:17.664Z,4.55
2019-02-06T02:34:17.663Z,4.49
2019-02-06T02:35:17.678Z,4.42
2019-02-06T02:36:17.633Z,4.44
2019-02-06T02:37:17.643Z,4.49
2019-02-06T02:38:17.610Z,4.49
2019-02-06T02:39:17.642Z,4.45
2019-02-06T02:40:17.590Z,4.56
2019-02-06T02:41:17.579Z,4.56
2019-02-06T02:42:17.564Z,4.62
2019-02-06T02:43:17.550Z,4.63
2019-02-06T02:44:17.531Z,4.66
2019-02-06T02:45:17.545Z,4.73
2019-02-06T02:46:17.574Z,4.75
2019-02-06T02:47:17.509Z,4.66
2019-02-06T02:48:17.518Z,4.78
2019-02-06T02:49:17.495Z,4.74
2019-02-06T02:50:17.465Z,4.75
2019-02-06T02:51:17.467Z,4.68
2019-02-06T02:52:17.448Z,4.70
2019-02-06T02:53:17.438Z,4.66
2019-02-06T02:54:17.460Z,4.71
2019-02-06T02:55:17.423Z,4.62
2019-02-06T02:56:17.410Z,4.66
2019-02-06T02:57:17.404Z,4.67
2019-02-06T02:58:17.381Z,4.62
2019-02-06T02:59:17.382Z,4.53
2019-02-06T03:00:17.362Z,4.60
2019-02-06T03:01:17.360Z,4.67
2019-02-06T03:02:17.344Z,4.70
2019-02-06T03:03:17.334Z,4.63
2019-02-06T03:04:17.360Z,4.63
2019-02-06T03:05:17.306Z,4.66
2019-02-06T03:06:27.506Z,4.62
2019-02-06T03:07:18.288Z,4.63
2019-02-06T03:08:17.273Z,4.55
2019-02-06T03:09:17.265Z,4.58
2019-02-06T03:10:17.256Z,4.50
2019-02-06T03:11:17.234Z,4.63
2019-02-06T03:12:17.304Z,4.59
2019-02-06T03:13:17.211Z,4.58
2019-02-06T03:14:17.208Z,4.52
2019-02-06T03:15:17.202Z,4.52
2019-02-06T03:16:17.208Z,4.52
2019-02-06T03:17:17.179Z,4.53
2019-02-06T03:18:17.213Z,4.68
2019-02-06T03:19:17.154Z,4.63
2019-02-06T03:20:17.204Z,4.68
2019-02-06T03:21:17.165Z,4.58
2019-02-06T03:22:17.160Z,4.55
2019-02-06T03:23:17.105Z,4.52
2019-02-06T03:24:17.092Z,4.53
2019-02-06T03:25:17.140Z,4.50
2019-02-06T03:26:17.120Z,4.55
2019-02-06T03:27:17.118Z,4.50
2019-02-06T03:28:17.083Z,4.44
2019-02-06T03:29:17.063Z,4.45
2019-02-06T03:30:17.101Z,4.50
2019-02-06T03:31:17.028Z,4.49
2019-02-06T03:32:17.011Z,4.56
2019-02-06T03:33:17.037Z,4.53
2019-02-06T03:34:16.990Z,4.56
2019-02-06T03:35:16.965Z,4.56
2019-02-06T03:36:16.958Z,4.55
2019-02-06T03:37:16.970Z,4.59
2019-02-06T03:38:16.942Z,4.45
2019-02-06T03:39:16.926Z,4.58
2019-02-06T03:40:16.922Z,4.67
2019-02-06T03:41:16.899Z,4.66
2019-02-06T03:42:16.887Z,4.66
2019-02-06T03:43:16.888Z,4.68
2019-02-06T03:44:16.866Z,4.66
2019-02-06T03:45:16.899Z,4.62
2019-02-06T03:46:16.882Z,4.53
2019-02-06T03:47:16.834Z,4.55
2019-02-06T03:48:16.830Z,4.50
2019-02-06T03:49:16.822Z,4.50
2019-02-06T03:50:16.796Z,4.53
2019-02-06T03:51:16.788Z,4.50
2019-02-06T03:52:16.773Z,4.53
2019-02-06T03:53:16.766Z,4.50
2019-02-06T03:54:16.764Z,4.59
2019-02-06T03:55:16.756Z,4.53
2019-02-06T03:56:16.796Z,4.52
2019-02-06T03:57:16.717Z,4.55
2019-02-06T03:58:16.774Z,4.66
2019-02-06T03:59:16.695Z,4.63
2019-02-06T04:00:16.725Z,4.67
2019-02-06T04:01:16.672Z,4.68
2019-02-06T04:02:16.679Z,4.68
2019-02-06T04:03:16.648Z,4.63
2019-02-06T04:04:16.643Z,4.71
2019-02-06T04:05:16.627Z,4.60
2019-02-06T04:06:16.620Z,4.70
2019-02-06T04:07:16.619Z,4.63
2019-02-06T04:08:16.608Z,4.67
2019-02-06T04:09:16.616Z,4.67
2019-02-06T04:10:16.576Z,4.67
2019-02-06T04:11:16.569Z,4.56
2019-02-06T04:12:16.561Z,4.56
2019-02-06T04:13:16.574Z,4.49
2019-02-06T04:14:16.550Z,4.49
2019-02-06T04:15:16.515Z,4.48
2019-02-06T04:16:16.509Z,4.53
2019-02-06T04:17:16.529Z,4.52
2019-02-06T04:18:16.522Z,4.60
2019-02-06T04:19:16.509Z,4.67
2019-02-06T04:20:16.462Z,4.71
2019-02-06T04:21:16.447Z,4.63
2019-02-06T04:22:16.485Z,4.67
2019-02-06T04:23:16.441Z,4.66
2019-02-06T04:24:16.434Z,4.59
2019-02-06T04:25:16.439Z,4.62
2019-02-06T04:26:16.447Z,4.58
2019-02-06T04:27:16.447Z,4.49
2019-02-06T04:28:16.379Z,4.49
2019-02-06T04:29:16.374Z,4.42
2019-02-06T04:30:16.362Z,4.41
2019-02-06T04:31:16.366Z,4.38
2019-02-06T04:32:16.329Z,4.40
2019-02-06T04:33:16.320Z,4.44
2019-02-06T04:34:16.313Z,4.45
2019-02-06T04:35:16.332Z,4.49
2019-02-06T04:36:16.332Z,4.62
2019-02-06T04:37:16.270Z,4.63
2019-02-06T04:38:16.263Z,4.63
2019-02-06T04:39:16.249Z,4.63
2019-02-06T04:40:16.249Z,4.67
2019-02-06T04:41:16.234Z,4.78
2019-02-06T04:42:16.252Z,4.77
2019-02-06T04:43:16.223Z,4.70
2019-02-06T04:44:16.225Z,4.68
2019-02-06T04:45:16.184Z,4.68
2019-02-06T04:46:16.167Z,4.62
2019-02-06T04:47:16.179Z,4.63
2019-02-06T04:48:16.186Z,4.68
2019-02-06T04:49:16.153Z,4.70
2019-02-06T04:50:16.125Z,4.66
2019-02-06T04:51:16.110Z,4.53
2019-02-06T04:52:16.129Z,4.53
2019-02-06T04:53:16.099Z,4.53
2019-02-06T04:54:16.085Z,4.50
2019-02-06T04:55:16.082Z,4.44
2019-02-06T04:56:16.073Z,4.41
2019-02-06T04:57:16.050Z,4.38
2019-02-06T04:58:16.122Z,4.38
2019-02-06T04:59:16.032Z,4.30
2019-02-06T05:00:16.009Z,4.30
2019-02-06T05:01:16.015Z,4.32
2019-02-06T05:02:15.987Z,4.17
2019-02-06T05:03:15.984Z,4.10
2019-02-06T05:04:15.981Z,4.13
2019-02-06T05:05:15.959Z,4.05
2019-02-06T05:06:15.965Z,4.01
2019-02-06T05:07:19.433Z,3.99
2019-02-06T05:08:15.918Z,3.87
2019-02-06T05:09:15.916Z,3.88
2019-02-06T05:10:15.912Z,3.80
2019-02-06T05:11:16.015Z,3.81
2019-02-06T05:12:15.889Z,3.76
2019-02-06T05:13:15.893Z,3.74
2019-02-06T05:14:15.853Z,3.68
2019-02-06T05:15:15.853Z,3.70
2019-02-06T05:16:15.897Z,3.66
2019-02-06T05:17:15.820Z,3.58
2019-02-06T05:18:15.820Z,3.65
2019-02-06T05:19:15.810Z,3.63
2019-02-06T05:20:15.792Z,3.68
2019-02-06T05:21:15.798Z,3.73
2019-02-06T05:22:15.843Z,3.77
2019-02-06T05:23:15.755Z,3.76
2019-02-06T05:24:15.752Z,3.70
2019-02-06T05:25:15.740Z,3.69
2019-02-06T05:26:15.739Z,3.60
2019-02-06T05:27:15.736Z,3.62
2019-02-06T05:28:18.087Z,3.65
2019-02-06T05:29:15.697Z,3.53
2019-02-06T05:30:15.691Z,3.55
2019-02-06T05:31:15.685Z,3.58
2019-02-06T05:32:15.664Z,3.66
2019-02-06T05:33:15.664Z,3.68
2019-02-06T05:34:15.639Z,3.58
2019-02-06T05:35:15.623Z,3.47
2019-02-06T05:36:15.620Z,3.50
2019-02-06T05:37:15.615Z,3.51
2019-02-06T05:38:15.601Z,3.45
2019-02-06T05:39:15.658Z,3.58
2019-02-06T05:40:15.632Z,3.42
2019-02-06T05:41:15.561Z,3.50
2019-02-06T05:42:15.544Z,3.47
2019-02-06T05:43:15.550Z,3.44
2019-02-06T05:44:15.552Z,3.36
2019-02-06T05:45:15.517Z,3.44
2019-02-06T05:46:15.509Z,3.37
2019-02-06T05:47:15.508Z,3.34
2019-02-06T05:48:15.483Z,3.32
2019-02-06T05:49:15.497Z,3.25
2019-02-06T05:50:15.467Z,3.23
2019-02-06T05:51:15.457Z,3.21
2019-02-06T05:52:15.441Z,3.18
2019-02-06T05:53:15.432Z,3.18
2019-02-06T05:54:15.426Z,3.10
2019-02-06T05:55:15.416Z,3.13
2019-02-06T05:56:15.400Z,3.07
2019-02-06T05:57:15.387Z,2.98
2019-02-06T05:58:15.387Z,2.93
2019-02-06T05:59:15.369Z,2.89
2019-02-06T06:00:15.362Z,2.92
2019-02-06T06:01:15.356Z,2.93
2019-02-06T06:02:15.339Z,2.98
2019-02-06T06:03:15.316Z,2.95
2019-02-06T06:04:15.477Z,2.98
2019-02-06T06:05:15.300Z,2.97
2019-02-06T06:06:15.297Z,2.95
2019-02-06T06:07:15.345Z,2.85
2019-02-06T06:08:15.265Z,2.86
2019-02-06T06:09:15.258Z,2.87
2019-02-06T06:10:15.299Z,2.87
2019-02-06T06:11:15.279Z,2.85
2019-02-06T06:12:15.268Z,2.83
2019-02-06T06:13:18.371Z,2.92
2019-02-06T06:14:15.199Z,2.89
2019-02-06T06:15:15.222Z,2.83
2019-02-06T06:16:15.198Z,2.79
2019-02-06T06:17:15.207Z,2.80
2019-02-06T06:18:15.162Z,2.74
2019-02-06T06:19:15.151Z,2.89
2019-02-06T06:20:15.134Z,2.93
2019-02-06T06:21:15.141Z,2.90
2019-02-06T06:22:15.132Z,2.89
2019-02-06T06:23:15.108Z,2.90
2019-02-06T06:24:15.112Z,2.75
2019-02-06T06:25:15.089Z,2.92
2019-02-06T06:26:15.094Z,2.86
2019-02-06T06:27:15.063Z,2.82
2019-02-06T06:28:15.091Z,2.74
2019-02-06T06:29:15.048Z,2.80
2019-02-06T06:30:15.066Z,2.75
2019-02-06T06:31:15.023Z,2.71
2019-02-06T06:32:15.014Z,2.75
2019-02-06T06:33:15.004Z,2.75
2019-02-06T06:34:14.985Z,2.74
2019-02-06T06:35:15.150Z,2.77
2019-02-06T06:36:15.041Z,2.69
2019-02-06T06:37:14.982Z,2.60
2019-02-06T06:38:14.953Z,2.60
2019-02-06T06:39:14.938Z,2.60
2019-02-06T06:40:14.924Z,2.50
2019-02-06T06:41:14.926Z,2.51
2019-02-06T06:42:14.972Z,2.49
2019-02-06T06:43:16.292Z,2.47
2019-02-06T06:44:14.884Z,2.46
2019-02-06T06:45:14.873Z,2.50
2019-02-06T06:46:14.859Z,2.50
2019-02-06T06:47:14.843Z,2.46
2019-02-06T06:48:14.836Z,2.56
2019-02-06T06:49:14.875Z,2.51
2019-02-06T06:50:14.816Z,2.47
2019-02-06T06:51:14.798Z,2.44
2019-02-06T06:52:14.800Z,2.42
2019-02-06T06:53:14.824Z,2.36
2019-02-06T06:54:14.768Z,2.24
2019-02-06T06:55:14.756Z,2.24
2019-02-06T06:56:14.757Z,2.32
2019-02-06T06:57:14.737Z,2.22
2019-02-06T06:58:14.730Z,2.26
2019-02-06T06:59:14.716Z,2.29
2019-02-06T07:00:14.703Z,2.25
2019-02-06T07:01:14.721Z,2.32
2019-02-06T07:02:14.748Z,2.26
2019-02-06T07:03:14.716Z,2.24
2019-02-06T07:04:14.675Z,2.29
2019-02-06T07:05:14.647Z,2.28
2019-02-06T07:06:14.626Z,2.33
2019-02-06T07:07:14.625Z,2.28
2019-02-06T07:08:14.619Z,2.22
2019-02-06T07:09:14.625Z,2.28
2019-02-06T07:10:14.702Z,2.25
2019-02-06T07:11:14.578Z,2.25
2019-02-06T07:12:14.568Z,2.22
2019-02-06T07:13:14.563Z,2.29
2019-02-06T07:14:14.549Z,2.29
2019-02-06T07:15:14.543Z,2.29
2019-02-06T07:16:14.530Z,2.38
2019-02-06T07:17:14.811Z,2.24
2019-02-06T07:18:14.502Z,2.25
2019-02-06T07:19:14.546Z,2.26
2019-02-06T07:20:14.477Z,2.26
2019-02-06T07:21:14.469Z,2.24
2019-02-06T07:22:14.467Z,2.39
2019-02-06T07:23:14.450Z,2.25
2019-02-06T07:24:14.447Z,2.32
2019-02-06T07:25:14.435Z,2.32
2019-02-06T07:26:14.433Z,2.35
2019-02-06T07:27:14.450Z,2.25
2019-02-06T07:28:14.395Z,2.31
2019-02-06T07:29:14.391Z,2.28
2019-02-06T07:30:14.374Z,2.29
2019-02-06T07:31:14.377Z,2.31
2019-02-06T07:32:14.365Z,2.36
2019-02-06T07:33:14.334Z,2.28
2019-02-06T07:34:14.331Z,2.38
2019-02-06T07:35:14.337Z,2.36
2019-02-06T07:36:14.320Z,2.32
2019-02-06T07:37:14.300Z,2.35
2019-02-06T07:38:23.909Z,2.36
2019-02-06T07:39:15.268Z,2.36
2019-02-06T07:40:14.264Z,2.44
2019-02-06T07:41:14.258Z,2.43
2019-02-06T07:42:14.254Z,2.47
2019-02-06T07:43:14.255Z,2.49
2019-02-06T07:44:14.217Z,2.46
2019-02-06T07:45:14.247Z,2.47
2019-02-06T07:46:14.192Z,2.50
2019-02-06T07:47:14.192Z,2.51
2019-02-06T07:48:14.188Z,2.49
2019-02-06T07:49:14.184Z,2.56
2019-02-06T07:50:14.155Z,2.53
2019-02-06T07:51:14.144Z,2.53
2019-02-06T07:52:14.129Z,2.60
2019-02-06T07:53:14.123Z,2.51
2019-02-06T07:54:14.133Z,2.54
2019-02-06T07:55:14.104Z,2.57
2019-02-06T07:56:14.086Z,2.64
2019-02-06T07:57:14.073Z,2.60
2019-02-06T07:58:14.072Z,2.57
2019-02-06T07:59:14.073Z,2.64
2019-02-06T08:00:14.057Z,2.77
2019-02-06T08:01:14.030Z,2.72
2019-02-06T08:02:14.013Z,2.71
2019-02-06T08:03:14.015Z,2.71
2019-02-06T08:04:14.000Z,2.75
2019-02-06T08:05:13.999Z,2.74
2019-02-06T08:06:14.005Z,2.80
2019-02-06T08:07:13.972Z,2.74
2019-02-06T08:08:13.950Z,2.75
2019-02-06T08:09:13.950Z,2.77
2019-02-06T08:10:13.937Z,2.87
2019-02-06T08:11:13.939Z,2.93
2019-02-06T08:12:13.924Z,2.97
2019-02-06T08:13:13.909Z,2.93
2019-02-06T08:14:13.888Z,2.97
2019-02-06T08:15:13.885Z,3.07
2019-02-06T08:16:13.873Z,3.03
2019-02-06T08:17:13.877Z,3.00
2019-02-06T08:18:13.864Z,3.03
2019-02-06T08:19:13.833Z,2.92
2019-02-06T08:20:13.855Z,2.93
2019-02-06T08:21:13.818Z,2.90
2019-02-06T08:22:13.805Z,2.95
2019-02-06T08:23:13.792Z,2.89
2019-02-06T08:24:13.786Z,2.85
2019-02-06T08:25:13.769Z,2.87
2019-02-06T08:26:13.815Z,2.92
2019-02-06T08:27:13.772Z,2.93
2019-02-06T08:28:13.736Z,2.92
2019-02-06T08:29:13.723Z,2.93
2019-02-06T08:30:13.710Z,2.93
2019-02-06T08:31:13.710Z,2.85
2019-02-06T08:32:13.696Z,2.90
2019-02-06T08:33:13.707Z,2.87
2019-02-06T08:34:13.680Z,2.85
2019-02-06T08:35:13.657Z,2.85
2019-02-06T08:36:13.645Z,2.85
2019-02-06T08:37:13.648Z,2.86
2019-02-06T08:38:13.634Z,2.93
2019-02-06T08:39:13.617Z,2.85
2019-02-06T08:40:13.624Z,2.95
2019-02-06T08:41:13.600Z,2.92
2019-02-06T08:42:13.581Z,2.97
2019-02-06T08:43:13.625Z,2.90
2019-02-06T08:44:13.571Z,3.07
2019-02-06T08:45:13.557Z,3.11
2019-02-06T08:46:13.566Z,3.05
2019-02-06T08:47:13.533Z,3.05
2019-02-06T08:48:13.525Z,3.07
2019-02-06T08:49:13.515Z,3.05
2019-02-06T08:50:13.510Z,3.08
2019-02-06T08:51:13.492Z,3.05
2019-02-06T08:52:13.481Z,3.11
2019-02-06T08:53:13.477Z,3.11
2019-02-06T08:54:13.451Z,3.11
2019-02-06T08:55:13.455Z,3.10
2019-02-06T08:56:13.435Z,3.11
2019-02-06T08:57:13.435Z,3.19
2019-02-06T08:58:13.424Z,3.16
2019-02-06T08:59:13.416Z,3.18
2019-02-06T09:00:13.391Z,3.13
2019-02-06T09:01:13.378Z,3.05
2019-02-06T09:02:13.375Z,3.18
2019-02-06T09:03:13.368Z,3.22
2019-02-06T09:04:13.349Z,3.22
2019-02-06T09:05:13.394Z,3.23
2019-02-06T09:06:13.324Z,3.25
2019-02-06T09:07:13.320Z,3.23
2019-02-06T09:08:13.306Z,3.34
2019-02-06T09:09:13.306Z,3.44
2019-02-06T09:10:13.547Z,3.48
2019-02-06T09:11:13.279Z,3.44
2019-02-06T09:12:13.263Z,3.53
2019-02-06T09:13:13.282Z,3.45
2019-02-06T09:14:13.252Z,3.55
2019-02-06T09:15:13.222Z,3.53
2019-02-06T09:16:13.221Z,3.59
2019-02-06T09:17:13.205Z,3.56
2019-02-06T09:18:13.199Z,3.66
2019-02-06T09:19:13.201Z,3.69
2019-02-06T09:20:13.188Z,3.63
2019-02-06T09:21:13.161Z,3.66
2019-02-06T09:22:13.161Z,3.63
2019-02-06T09:23:13.146Z,3.73
2019-02-06T09:24:13.131Z,3.60
2019-02-06T09:25:13.208Z,3.68
2019-02-06T09:26:13.125Z,3.77
2019-02-06T09:27:13.101Z,3.74
2019-02-06T09:28:13.094Z,3.87
2019-02-06T09:29:13.098Z,3.88
2019-02-06T09:30:13.069Z,3.92
2019-02-06T09:31:13.214Z,3.88
2019-02-06T09:32:13.039Z,3.94
2019-02-06T09:33:13.033Z,3.87
2019-02-06T09:34:13.023Z,4.01
2019-02-06T09:35:13.015Z,3.98
2019-02-06T09:36:13.001Z,4.04
2019-02-06T09:37:12.993Z,4.05
2019-02-06T09:38:13.017Z,4.12
2019-02-06T09:39:12.984Z,4.13
2019-02-06T09:40:12.960Z,4.16
2019-02-06T09:41:12.946Z,4.24
2019-02-06T09:42:12.941Z,4.20
2019-02-06T09:43:12.938Z,4.30
2019-02-06T09:44:12.910Z,4.34
2019-02-06T09:45:12.912Z,4.28
2019-02-06T09:46:12.896Z,4.32
2019-02-06T09:47:12.887Z,4.38
2019-02-06T09:48:12.876Z,4.44
2019-02-06T09:49:15.022Z,4.45
2019-02-06T09:50:12.889Z,4.35
2019-02-06T09:51:12.849Z,4.42
2019-02-06T09:52:12.824Z,4.30
2019-02-06T09:53:12.814Z,4.34
2019-02-06T09:54:12.829Z,4.38
2019-02-06T09:55:12.805Z,4.48
2019-02-06T09:56:12.782Z,4.49
2019-02-06T09:57:12.768Z,4.49
2019-02-06T09:58:12.756Z,4.52
2019-02-06T09:59:12.746Z,4.59
2019-02-06T10:00:12.758Z,4.60
2019-02-06T10:01:12.732Z,4.59
2019-02-06T10:02:12.714Z,4.73
2019-02-06T10:03:12.705Z,4.60
2019-02-06T10:04:12.700Z,4.68
2019-02-06T10:05:12.696Z,4.73
2019-02-06T10:06:12.688Z,4.74
2019-02-06T10:07:12.658Z,4.68
2019-02-06T10:08:12.690Z,4.77
2019-02-06T10:09:22.551Z,4.80
2019-02-06T10:10:13.638Z,4.78
2019-02-06T10:11:12.624Z,4.84
2019-02-06T10:12:12.621Z,4.77
2019-02-06T10:13:12.591Z,4.87
2019-02-06T10:14:12.585Z,4.90
2019-02-06T10:15:12.570Z,4.87
2019-02-06T10:16:12.570Z,4.96
2019-02-06T10:17:12.558Z,4.93
2019-02-06T10:18:12.534Z,4.96
2019-02-06T10:19:12.525Z,5.00
2019-02-06T10:20:12.676Z,4.97
2019-02-06T10:21:12.506Z,5.14
2019-02-06T10:22:12.495Z,5.11
2019-02-06T10:23:12.542Z,5.20
2019-02-06T10:24:12.466Z,5.11
2019-02-06T10:25:12.460Z,5.14
2019-02-06T10:26:12.452Z,5.18
2019-02-06T10:27:12.433Z,5.20
2019-02-06T10:28:12.429Z,5.17
2019-02-06T10:29:12.436Z,5.20
2019-02-06T10:30:12.415Z,5.23
2019-02-06T10:31:12.386Z,5.20
2019-02-06T10:32:12.385Z,5.20
2019-02-06T10:33:12.379Z,5.25
2019-02-06T10:34:12.379Z,5.18
2019-02-06T10:35:12.354Z,5.21
2019-02-06T10:36:12.333Z,5.15
2019-02-06T10:37:12.470Z,5.05
2019-02-06T10:38:12.374Z,5.07
2019-02-06T10:39:12.325Z,4.96
2019-02-06T10:40:12.332Z,4.99
2019-02-06T10:41:12.332Z,4.92
2019-02-06T10:42:12.303Z,4.94
2019-02-06T10:43:12.272Z,5.02
2019-02-06T10:44:12.300Z,4.93
2019-02-06T10:45:12.244Z,4.97
2019-02-06T10:46:12.230Z,5.11
2019-02-06T10:47:12.231Z,5.21
2019-02-06T10:48:12.266Z,5.26
2019-02-06T10:49:12.204Z,5.38
2019-02-06T10:50:12.332Z,5.43
2019-02-06T10:51:12.198Z,5.47
2019-02-06T10:52:12.197Z,5.47
2019-02-06T10:53:12.156Z,5.53
2019-02-06T10:54:14.576Z,5.56
2019-02-06T10:55:12.152Z,5.62
2019-02-06T10:56:12.133Z,5.65
2019-02-06T10:57:12.125Z,5.75
2019-02-06T10:58:12.113Z,5.84
2019-02-06T10:59:12.104Z,5.91
2019-02-06T11:00:12.088Z,5.86
2019-02-06T11:01:12.089Z,5.97
2019-02-06T11:02:12.071Z,5.99
2019-02-06T11:03:12.044Z,5.99
2019-02-06T11:04:12.020Z,6.02
2019-02-06T11:05:12.019Z,6.07
2019-02-06T11:06:12.007Z,6.05
2019-02-06T11:07:11.993Z,6.16
2019-02-06T11:08:12.003Z,6.11
2019-02-06T11:09:12.005Z,6.12
2019-02-06T11:10:11.969Z,6.12
2019-02-06T11:11:11.964Z,6.09
2019-02-06T11:12:11.940Z,6.17
2019-02-06T11:13:11.932Z,6.26
2019-02-06T11:14:11.946Z,6.17
2019-02-06T11:15:11.910Z,6.26
2019-02-06T11:16:11.988Z,6.22
2019-02-06T11:17:11.886Z,6.27
2019-02-06T11:18:11.879Z,6.30
2019-02-06T11:19:11.868Z,6.42
2019-02-06T11:20:11.871Z,6.20
2019-02-06T11:21:11.881Z,6.31
2019-02-06T11:22:11.835Z,6.33
2019-02-06T11:23:11.821Z,6.31
2019-02-06T11:24:11.811Z,6.41
2019-02-06T11:25:11.803Z,6.35
2019-02-06T11:26:11.797Z,6.44
2019-02-06T11:27:11.770Z,6.48
2019-02-06T11:28:11.875Z,6.45
2019-02-06T11:29:11.755Z,6.36
2019-02-06T11:30:11.740Z,6.42
2019-02-06T11:31:11.745Z,6.41
2019-02-06T11:32:11.767Z,6.33
2019-02-06T11:33:11.759Z,6.42
2019-02-06T11:34:11.701Z,6.30
2019-02-06T11:35:11.694Z,6.35
2019-02-06T11:36:23.598Z,6.36
2019-02-06T11:37:12.656Z,6.24
2019-02-06T11:38:11.712Z,6.35
2019-02-06T11:39:11.666Z,6.39
2019-02-06T11:40:11.634Z,6.30
2019-02-06T11:41:11.633Z,6.41
2019-02-06T11:42:11.604Z,6.42
2019-02-06T11:43:11.598Z,6.44
2019-02-06T11:44:11.663Z,6.38
2019-02-06T11:45:11.576Z,6.35
2019-02-06T11:46:11.574Z,6.46
2019-02-06T11:47:11.575Z,6.52
2019-02-06T11:48:11.539Z,6.48
2019-02-06T11:49:11.539Z,6.54
2019-02-06T11:50:11.525Z,6.56
2019-02-06T11:51:11.683Z,6.49
2019-02-06T11:52:11.500Z,6.54
2019-02-06T11:53:11.516Z,6.59
2019-02-06T11:54:11.485Z,6.48
2019-02-06T11:55:11.793Z,6.45
2019-02-06T11:56:11.458Z,6.41
2019-02-06T11:57:11.446Z,6.48
2019-02-06T11:58:11.433Z,6.41
2019-02-06T11:59:11.470Z,6.44
2019-02-06T12:00:11.412Z,6.36
2019-02-06T12:01:11.397Z,6.41
2019-02-06T12:02:11.394Z,6.27
2019-02-06T12:03:11.380Z,6.39
2019-02-06T12:04:11.384Z,6.35
2019-02-06T12:05:11.444Z,6.31
2019-02-06T12:06:11.339Z,6.42
2019-02-06T12:07:11.328Z,6.31
2019-02-06T12:08:12.610Z,6.30
2019-02-06T12:09:11.331Z,6.39
2019-02-06T12:10:11.302Z,6.38
2019-02-06T12:11:11.328Z,6.38
2019-02-06T12:12:11.299Z,6.42
2019-02-06T12:13:11.269Z,6.49
2019-02-06T12:14:11.340Z,6.54
2019-02-06T12:15:11.274Z,6.48
2019-02-06T12:16:11.228Z,6.54
2019-02-06T12:17:11.226Z,6.51
2019-02-06T12:18:11.228Z,6.63
2019-02-06T12:19:11.218Z,6.57
2019-02-06T12:20:11.195Z,6.64
2019-02-06T12:21:11.206Z,6.56
2019-02-06T12:22:11.185Z,6.62
2019-02-06T12:23:11.219Z,6.62
2019-02-06T12:24:11.183Z,6.60
2019-02-06T12:25:11.150Z,6.59
2019-02-06T12:26:11.182Z,6.62
2019-02-06T12:27:11.125Z,6.64
2019-02-06T12:28:11.287Z,6.64
2019-02-06T12:29:11.129Z,6.64
2019-02-06T12:30:11.113Z,6.67
2019-02-06T12:31:11.117Z,6.77
2019-02-06T12:32:11.155Z,6.84
2019-02-06T12:33:11.071Z,6.84
2019-02-06T12:34:11.030Z,6.75
2019-02-06T12:35:11.019Z,6.81
2019-02-06T12:36:11.013Z,6.77
2019-02-06T12:37:11.007Z,6.77
2019-02-06T12:38:10.992Z,6.81
2019-02-06T12:39:10.982Z,6.82
2019-02-06T12:40:21.019Z,6.77
2019-02-06T12:41:11.976Z,6.81
2019-02-06T12:42:10.939Z,6.77
2019-02-06T12:43:11.010Z,6.81
2019-02-06T12:44:10.957Z,6.75
2019-02-06T12:45:10.957Z,6.72
2019-02-06T12:46:10.911Z,6.67
2019-02-06T12:47:10.906Z,6.63
2019-02-06T12:48:10.877Z,6.60
2019-02-06T12:49:10.882Z,6.63
2019-02-06T12:50:10.854Z,6.62
2019-02-06T12:51:10.859Z,6.62
2019-02-06T12:52:10.880Z,6.63
2019-02-06T12:53:10.828Z,6.64
2019-02-06T12:54:10.824Z,6.72
2019-02-06T12:55:10.824Z,6.60
2019-02-06T12:56:10.792Z,6.75
2019-02-06T12:57:10.898Z,6.63
2019-02-06T12:58:10.779Z,6.66
2019-02-06T12:59:10.772Z,6.69
2019-02-06T13:00:10.760Z,6.64
2019-02-06T13:01:10.738Z,6.75
2019-02-06T13:02:10.734Z,6.60
2019-02-06T13:03:10.714Z,6.67
2019-02-06T13:04:10.743Z,6.67
2019-02-06T13:05:10.707Z,6.67
2019-02-06T13:06:10.716Z,6.64
2019-02-06T13:07:10.666Z,6.64
2019-02-06T13:08:10.744Z,6.63
2019-02-06T13:09:10.649Z,6.64
2019-02-06T13:10:10.656Z,6.64
2019-02-06T13:11:10.674Z,6.62
2019-02-06T13:12:10.622Z,6.63
2019-02-06T13:13:10.597Z,6.60
2019-02-06T13:14:10.586Z,6.66
2019-02-06T13:15:10.580Z,6.69
2019-02-06T13:16:10.624Z,6.74
2019-02-06T13:17:10.562Z,6.67
2019-02-06T13:18:10.541Z,6.63